KEMP

Emporia Municipal Airport

Emporia, Kansas, USA
METAR KEMP 122153Z AUTO 15010KT 10SM CLR 11/M04 A2978 RMK AO2 SLP093 T01061039
Observed Flight Rules
Dec-12 @ 21:53 UTC (23 minutes ago) Visual Flight Rules
Wind Visibility Clouds
150° at 10 knots 10 miles
  • Clear skies
Temperatures Readings
Current 11°C / 52°F
Dewpoint -4°C / 25°F
Humidity 35%
Altimeter 29.78" Hg
Pressure 1009.3 hPa
Elevation 367
METAR KEMP 122153Z AUTO 15010KT 10SM CLR 11/M04 A2978 RMK AO2 SLP093 T01061039
Observed Flight Rules
Dec-12 @ 21:53 UTC
(23 minutes ago)
VFR
Wind Visibility
150° at 10 knots 10 miles
Clouds
  • Clear skies
Temperature Dewpoint
11°C / 52°F -4°C / 25°F
Humidity Altimeter Pressure
35% 29.78" Hg 1009.3 hPa